Time;durP1;ratioP1;P1;durP2;ratioP2;P2;SDS_P1;SDS_P2;PMS_P1;PMS_P2;Temp;Humidity;BMP_temperature;BMP_pressure;BME280_temperature;BME280_humidity;BME280_pressure;Samples;Min_cycle;Max_cycle;Signal;HPM_P1;HPM_P2
2022/08/26 00:01:18;;;;;;;20.65;9.15;;;;;;;20.78;78.71;98444.24;1657238;86;25634;-59
2022/08/26 00:03:44;;;;;;;18.70;8.70;;;;;;;20.80;78.60;98434.11;1656857;86;25794;-59
2022/08/26 00:06:10;;;;;;;18.75;9.15;;;;;;;20.76;78.67;98437.48;1657054;85;25717;-58
2022/08/26 00:08:37;;;;;;;20.57;8.68;;;;;;;20.75;78.71;98434.49;1657144;86;28355;-59
2022/08/26 00:11:05;;;;;;;19.45;8.63;;;;;;;20.75;78.86;98433.10;1656871;86;25625;-59
2022/08/26 00:13:32;;;;;;;16.55;8.15;;;;;;;20.74;78.87;98425.92;1656830;85;25506;-59
2022/08/26 00:15:59;;;;;;;21.97;9.00;;;;;;;20.75;78.84;98428.31;1657184;85;26485;-59
2022/08/26 00:18:26;;;;;;;24.10;9.18;;;;;;;20.76;78.74;98431.33;1656956;85;25683;-59
2022/08/26 00:20:53;;;;;;;18.90;9.45;;;;;;;20.71;78.96;98437.83;1657179;85;27493;-59
2022/08/26 00:23:21;;;;;;;16.52;8.73;;;;;;;20.63;79.08;98439.77;1656972;85;26072;-59
2022/08/26 00:25:48;;;;;;;16.75;9.13;;;;;;;20.58;79.32;98433.19;1657070;86;25681;-59
2022/08/26 00:28:16;;;;;;;16.27;8.93;;;;;;;20.57;79.48;98436.55;1657062;86;25845;-59
2022/08/26 00:30:42;;;;;;;22.40;9.40;;;;;;;20.52;79.33;98430.75;1657350;85;25679;-59
2022/08/26 00:33:09;;;;;;;23.30;9.95;;;;;;;20.58;79.31;98431.19;1657068;85;27320;-59
2022/08/26 00:35:35;;;;;;;16.95;9.50;;;;;;;20.53;79.33;98431.56;1656976;86;25502;-59
2022/08/26 00:38:02;;;;;;;19.30;8.85;;;;;;;20.53;79.42;98426.00;1657622;85;25619;-59
2022/08/26 00:40:33;;;;;;;18.30;9.33;;;;;;;20.52;79.33;98425.19;1657218;85;25703;-58
2022/08/26 00:43:01;;;;;;;20.60;9.38;;;;;;;20.46;79.50;98427.34;1657373;85;25671;-59
2022/08/26 00:45:32;;;;;;;22.32;9.30;;;;;;;20.44;79.46;98429.13;1657015;85;27418;-59
2022/08/26 00:48:02;;;;;;;20.80;10.00;;;;;;;20.42;79.71;98428.70;1656984;85;25467;-60
2022/08/26 00:50:36;;;;;;;17.37;9.30;;;;;;;20.41;79.63;98425.11;1657490;86;25685;-59
2022/08/26 00:53:20;;;;;;;17.12;9.43;;;;;;;20.39;79.65;98426.11;1657223;85;26016;-59
2022/08/26 00:55:38;;;;;;;22.73;9.23;;;;;;;20.41;79.69;98423.72;1680627;85;25638;-59
2022/08/26 00:58:06;;;;;;;20.05;9.60;;;;;;;20.45;79.68;98423.75;1684294;85;27549;-59
2022/08/26 01:00:34;;;;;;;18.02;9.43;;;;;;;20.50;79.36;98417.84;1684013;84;26083;-59
2022/08/26 01:03:02;;;;;;;20.75;10.13;;;;;;;20.44;79.45;98417.38;1683932;85;25690;-59
2022/08/26 01:05:29;;;;;;;14.95;9.75;;;;;;;20.37;79.65;98424.88;1683983;84;25901;-59
2022/08/26 01:07:56;;;;;;;19.90;9.43;;;;;;;20.29;79.71;98419.84;1683787;85;25675;-59
2022/08/26 01:10:27;;;;;;;22.82;10.00;;;;;;;20.23;79.94;98424.20;1683648;85;26775;-59
2022/08/26 01:13:01;;;;;;;18.55;9.58;;;;;;;20.16;80.11;98425.73;1683761;84;26104;-59
2022/08/26 01:15:35;;;;;;;18.32;10.48;;;;;;;20.10;80.34;98424.48;1684315;85;25464;-59
2022/08/26 01:18:06;;;;;;;20.85;11.53;;;;;;;20.07;80.54;98422.47;1683738;85;25807;-59
2022/08/26 01:21:01;;;;;;;23.47;12.98;;;;;;;20.00;80.58;98423.16;1684037;85;25441;-59
2022/08/26 01:23:38;;;;;;;21.82;13.05;;;;;;;20.00;80.72;98424.55;1684159;85;27538;-59
2022/08/26 01:26:13;;;;;;;22.13;13.05;;;;;;;20.03;80.78;98425.20;1684209;85;25682;-59
2022/08/26 01:28:40;;;;;;;20.88;11.45;;;;;;;20.10;80.50;98429.23;1683588;84;25456;-59
2022/08/26 01:31:11;;;;;;;20.05;9.75;;;;;;;20.03;80.59;98429.96;1683703;85;25880;-60
2022/08/26 01:33:47;;;;;;;16.70;9.93;;;;;;;19.96;80.72;98425.70;1684123;84;25641;-59
2022/08/26 01:36:14;;;;;;;21.37;9.78;;;;;;;19.95;80.76;98426.31;1684550;85;28119;-59
2022/08/26 01:38:42;;;;;;;16.37;9.03;;;;;;;19.85;80.66;98429.77;1683818;85;25576;-59
2022/08/26 01:41:13;;;;;;;16.67;8.80;;;;;;;19.78;80.98;98429.13;1684070;85;25634;-59
2022/08/26 01:43:44;;;;;;;17.42;9.05;;;;;;;19.82;81.25;98429.95;1683955;84;25914;-59
2022/08/26 01:46:13;;;;;;;15.70;8.95;;;;;;;19.89;80.88;98429.23;1684131;85;25602;-58
2022/08/26 01:48:42;;;;;;;14.63;8.90;;;;;;;19.85;80.85;98426.98;1683985;85;27471;-58
2022/08/26 01:51:11;;;;;;;15.78;9.73;;;;;;;19.80;80.92;98434.50;1683833;85;25438;-58
2022/08/26 01:53:40;;;;;;;14.85;8.95;;;;;;;19.76;81.27;98428.70;1683977;85;25707;-59
2022/08/26 01:56:29;;;;;;;21.85;9.63;;;;;;;19.76;81.09;98432.87;1659212;85;25742;-58
2022/08/26 01:58:59;;;;;;;17.50;10.20;;;;;;;19.68;81.38;98427.82;1631684;87;25490;-56
2022/08/26 02:01:26;;;;;;;21.40;11.00;;;;;;;19.62;81.76;98430.16;1631603;87;27416;-56
2022/08/26 02:04:18;;;;;;;20.45;10.70;;;;;;;19.55;81.88;98423.91;1631436;87;25538;-56
2022/08/26 02:06:45;;;;;;;17.40;11.18;;;;;;;19.51;82.29;98429.22;1631662;87;25844;-58
2022/08/26 02:09:11;;;;;;;18.75;11.73;;;;;;;19.47;82.52;98422.26;1631625;87;25751;-59
2022/08/26 02:11:39;;;;;;;22.37;11.80;;;;;;;19.43;82.61;98424.20;1631434;87;25555;-58
2022/08/26 02:14:10;;;;;;;19.87;11.18;;;;;;;19.42;82.99;98426.75;1631286;87;27417;-58
2022/08/26 02:16:40;;;;;;;20.17;11.33;;;;;;;19.38;83.10;98428.12;1630944;87;25791;-58
2022/08/26 02:19:10;;;;;;;;;;;;;;;19.37;83.27;98423.72;1634118;87;25571;-58
2022/08/26 02:21:39;;;;;;;24.05;11.93;;;;;;;19.34;83.51;98425.87;1631633;87;25767;-58
2022/08/26 02:24:17;;;;;;;27.73;12.13;;;;;;;19.31;83.52;98428.02;1631382;87;25684;-58
2022/08/26 02:26:46;;;;;;;24.23;12.07;;;;;;;19.30;83.65;98427.23;1631640;87;27457;-58
2022/08/26 02:29:30;;;;;;;20.75;12.53;;;;;;;19.24;84.09;98425.97;1631593;87;25502;-58
2022/08/26 02:31:56;;;;;;;23.15;12.13;;;;;;;19.25;84.13;98423.39;1631328;87;25574;-58
2022/08/26 02:34:32;;;;;;;20.62;11.85;;;;;;;19.26;84.82;98431.14;1631533;87;26125;-59
2022/08/26 02:37:03;;;;;;;20.48;12.20;;;;;;;19.23;84.62;98419.40;1639446;87;25460;-58
2022/08/26 02:39:31;;;;;;;23.05;13.03;;;;;;;19.16;84.77;98429.23;1640999;87;28404;-58
2022/08/26 02:41:58;;;;;;;21.42;11.90;;;;;;;19.15;84.91;98428.23;1640758;87;25723;-58
2022/08/26 02:44:26;;;;;;;22.32;12.53;;;;;;;19.15;84.65;98422.09;1611130;89;25467;-58
2022/08/26 02:46:53;;;;;;;22.70;12.30;;;;;;;19.14;84.61;98426.64;1611476;89;26449;-58
2022/08/26 02:49:22;;;;;;;21.02;12.10;;;;;;;19.10;84.72;98427.97;1611355;89;25542;-58
2022/08/26 02:51:49;;;;;;;25.02;11.35;;;;;;;19.08;85.08;98419.20;1611441;89;27563;-58
2022/08/26 02:54:19;;;;;;;24.87;12.25;;;;;;;19.05;85.13;98426.88;1611431;89;25658;-58
2022/08/26 02:56:45;;;;;;;22.15;12.07;;;;;;;19.07;85.16;98427.30;1611470;87;25550;-59
2022/08/26 02:59:12;;;;;;;21.45;12.60;;;;;;;19.06;85.17;98427.10;1611269;89;25876;-58
2022/08/26 03:01:40;;;;;;;22.35;11.57;;;;;;;19.03;85.13;98423.08;1611386;89;25453;-59
2022/08/26 03:04:10;;;;;;;29.00;12.80;;;;;;;18.96;85.33;98424.39;1611152;89;27487;-58
2022/08/26 03:06:37;;;;;;;25.55;12.37;;;;;;;18.94;85.25;98426.73;1611598;89;25660;-58
2022/08/26 03:09:06;;;;;;;23.95;12.60;;;;;;;18.91;85.60;98428.29;1611167;89;25668;-58
2022/08/26 03:11:34;;;;;;;23.50;12.20;;;;;;;18.90;85.48;98425.31;1611369;89;25833;-58
2022/08/26 03:14:02;;;;;;;26.35;12.95;;;;;;;18.92;85.59;98416.61;1611521;89;25704;-58
2022/08/26 03:16:34;;;;;;;21.87;12.63;;;;;;;18.90;86.14;98421.72;1611194;89;27568;-58
2022/08/26 03:19:04;;;;;;;23.22;12.47;;;;;;;18.85;85.98;98417.30;1611394;89;25668;-57
2022/08/26 03:21:31;;;;;;;24.25;12.03;;;;;;;18.84;86.57;98413.51;1611394;89;25652;-57
2022/08/26 03:23:58;;;;;;;21.48;13.15;;;;;;;18.80;86.78;98414.87;1611210;88;25739;-57
2022/08/26 03:26:25;;;;;;;20.15;11.78;;;;;;;18.81;86.46;98412.30;1611497;89;25550;-60
2022/08/26 03:31:36;;;;;;;24.80;12.33;;;;;;;18.79;86.38;98407.11;1611038;89;25672;-57
2022/08/26 03:34:03;;;;;;;17.85;11.70;;;;;;;18.83;86.19;98407.17;1611499;87;25628;-56
2022/08/26 03:36:31;;;;;;;18.40;12.20;;;;;;;18.84;86.14;98410.73;1611323;89;25801;-56
2022/08/26 03:38:57;;;;;;;21.37;12.05;;;;;;;18.85;86.29;98408.19;1611495;89;25519;-56
2022/08/26 03:41:23;;;;;;;22.77;11.75;;;;;;;18.81;86.30;98413.69;1611675;87;27457;-57
2022/08/26 03:43:49;;;;;;;23.00;12.50;;;;;;;18.76;86.45;98411.22;1611310;89;25525;-57
2022/08/26 03:46:19;;;;;;;20.25;11.38;;;;;;;18.70;86.48;98403.81;1611233;89;25683;-57
2022/08/26 03:48:46;;;;;;;22.93;11.33;;;;;;;18.66;86.48;98402.97;1611140;89;25703;-59
2022/08/26 03:51:15;;;;;;;20.60;12.35;;;;;;;18.67;86.22;98401.20;1611409;89;25659;-57
2022/08/26 03:53:42;;;;;;;22.32;10.98;;;;;;;18.64;86.57;98399.19;1611525;89;27420;-56
2022/08/26 03:56:09;;;;;;;25.05;11.88;;;;;;;18.64;86.44;98399.77;1611640;89;25517;-56
2022/08/26 03:58:37;;;;;;;22.95;11.15;;;;;;;18.61;86.26;98394.38;1611132;87;25506;-57
2022/08/26 04:01:04;;;;;;;22.42;11.20;;;;;;;18.56;86.29;98401.63;1611302;89;25755;-59
2022/08/26 04:06:16;;;;;;;19.07;11.95;;;;;;;18.55;85.99;98397.27;1611345;89;26665;-57
2022/08/26 04:08:43;;;;;;;18.23;11.38;;;;;;;18.54;85.98;98395.06;1611606;89;25712;-57
2022/08/26 04:11:20;;;;;;;20.70;11.45;;;;;;;18.53;85.82;98394.05;1611557;89;25502;-57
2022/08/26 04:13:47;;;;;;;21.10;11.25;;;;;;;18.53;85.77;98394.86;1611227;89;25625;-57
2022/08/26 04:16:16;;;;;;;22.52;11.60;;;;;;;18.54;85.62;98392.90;1611797;89;25455;-57
2022/08/26 04:18:42;;;;;;;22.15;10.82;;;;;;;18.58;85.44;98394.31;1611484;89;27486;-57
2022/08/26 04:21:10;;;;;;;20.77;10.65;;;;;;;18.61;85.23;98388.83;1611443;89;25792;-57
2022/08/26 04:23:38;;;;;;;19.95;11.25;;;;;;;18.63;85.22;98392.63;1611443;89;25533;-57
2022/08/26 04:26:05;;;;;;;22.52;11.20;;;;;;;18.65;85.18;98393.05;1611394;89;26565;-57
2022/08/26 04:28:31;;;;;;;23.62;11.03;;;;;;;18.69;85.01;98390.52;1611255;89;25468;-57
2022/08/26 04:30:58;;;;;;;19.67;11.35;;;;;;;18.71;84.78;98392.13;1611379;89;27660;-57
2022/08/26 04:33:25;;;;;;;21.35;11.18;;;;;;;18.77;84.71;98398.36;1611369;89;25613;-57
2022/08/26 04:36:01;;;;;;;23.00;11.20;;;;;;;18.80;84.56;98392.66;1611519;89;25581;-57
2022/08/26 04:38:29;;;;;;;20.92;11.40;;;;;;;18.83;84.42;98394.69;1611131;89;25784;-57
2022/08/26 04:40:56;;;;;;;22.22;11.33;;;;;;;18.83;84.43;98396.07;1611318;89;25503;-59
2022/08/26 04:43:29;;;;;;;19.30;10.80;;;;;;;18.89;84.34;98399.31;1611391;89;27433;-57
2022/08/26 04:45:52;;;;;;;18.43;10.63;;;;;;;18.96;84.20;98398.59;1611124;89;25513;-57
2022/08/26 04:48:18;;;;;;;21.70;10.98;;;;;;;18.97;84.03;98399.59;1611202;89;25507;-57
2022/08/26 04:50:44;;;;;;;22.07;10.25;;;;;;;19.00;83.92;98393.29;1611253;89;25788;-56
2022/08/26 04:53:11;;;;;;;22.75;10.72;;;;;;;19.04;83.78;98394.73;1611270;89;25507;-57
2022/08/26 04:55:38;;;;;;;17.55;10.65;;;;;;;19.13;83.69;98396.67;1611136;89;27456;-60
2022/08/26 04:58:07;;;;;;;19.25;9.83;;;;;;;19.23;83.39;98395.79;1608786;87;25609;-59
2022/08/26 05:00:34;;;;;;;19.27;10.68;;;;;;;19.30;82.95;98395.86;1621305;86;25511;-57
2022/08/26 05:03:00;;;;;;;16.32;9.93;;;;;;;19.36;82.70;98394.34;1617703;87;25664;-57
2022/08/26 05:05:27;;;;;;;15.15;9.58;;;;;;;19.40;82.12;98388.84;1620538;87;25670;-57
2022/08/26 05:07:53;;;;;;;17.90;10.23;;;;;;;19.48;82.15;98385.52;1617052;87;27475;-57
2022/08/26 05:10:19;;;;;;;14.10;8.80;;;;;;;19.54;81.70;98385.39;1619755;87;25884;-56
2022/08/26 05:12:45;;;;;;;21.30;11.50;;;;;;;19.63;81.21;98385.10;1620060;87;25796;-57
2022/08/26 05:15:12;;;;;;;20.43;9.78;;;;;;;19.69;81.63;98382.97;1617531;87;25779;-57
2022/08/26 05:17:38;;;;;;;16.82;9.40;;;;;;;19.74;80.94;98383.20;1620058;87;25752;-57
2022/08/26 05:20:06;;;;;;;16.42;9.38;;;;;;;19.84;80.85;98387.28;1621376;87;26817;-57
2022/08/26 05:22:32;;;;;;;16.52;9.33;;;;;;;19.92;80.66;98382.59;1622845;87;25635;-58
2022/08/26 05:24:58;;;;;;;19.25;9.68;;;;;;;20.01;80.23;98386.43;1619240;87;25779;-56
2022/08/26 05:27:24;;;;;;;20.00;9.48;;;;;;;20.07;79.94;98384.92;1617924;87;25745;-57
2022/08/26 05:29:52;;;;;;;18.87;8.85;;;;;;;20.10;79.28;98386.13;1618578;87;25945;-58
2022/08/26 05:32:19;;;;;;;17.60;8.85;;;;;;;20.10;79.26;98390.30;1618023;87;28108;-57
2022/08/26 05:34:45;;;;;;;22.45;9.88;;;;;;;20.09;78.93;98392.27;1623944;87;25699;-58
2022/08/26 05:37:12;;;;;;;13.62;9.05;;;;;;;20.09;79.11;98390.88;1619985;87;25741;-57
2022/08/26 05:39:38;;;;;;;15.68;8.95;;;;;;;20.17;79.07;98387.56;1619898;87;25743;-57
2022/08/26 05:42:07;;;;;;;18.17;10.20;;;;;;;20.16;78.71;98388.76;1618018;87;25708;-59
2022/08/26 05:44:33;;;;;;;17.82;9.60;;;;;;;20.24;78.93;98392.40;1619479;87;27571;-58
2022/08/26 05:46:59;;;;;;;14.63;9.15;;;;;;;20.40;78.60;98387.92;1619973;87;25791;-58
2022/08/26 05:49:26;;;;;;;16.40;10.08;;;;;;;20.50;78.19;98387.22;1618389;87;25650;-59
2022/08/26 05:51:53;;;;;;;15.58;9.23;;;;;;;20.60;78.11;98389.04;1619075;87;25810;-58
2022/08/26 05:54:19;;;;;;;23.15;9.40;;;;;;;20.77;77.25;98389.75;1618737;87;25836;-58
2022/08/26 05:56:45;;;;;;;21.68;9.75;;;;;;;20.92;76.96;98382.88;1616570;87;27415;-58
2022/08/26 05:59:14;;;;;;;16.40;8.75;;;;;;;21.01;76.91;98381.92;1620593;87;25771;-58
2022/08/26 06:01:42;;;;;;;17.10;8.70;;;;;;;21.02;76.38;98382.73;1619252;87;26005;-58
2022/08/26 06:04:10;;;;;;;13.45;8.18;;;;;;;21.08;75.92;98383.95;1617330;87;25846;-58
2022/08/26 06:06:40;;;;;;;16.95;9.10;;;;;;;21.19;74.71;98382.60;1619256;87;25744;-57
2022/08/26 06:09:06;;;;;;;20.43;8.73;;;;;;;21.16;74.89;98378.59;1620591;87;26473;-57
2022/08/26 06:11:33;;;;;;;18.85;8.35;;;;;;;21.27;74.77;98378.63;1664410;85;25738;-57
2022/08/26 06:14:04;;;;;;;17.57;8.53;;;;;;;21.29;73.54;98377.66;1662147;85;25799;-58
2022/08/26 06:16:35;;;;;;;10.90;8.00;;;;;;;21.31;73.45;98382.83;1664020;85;25799;-58
2022/08/26 06:19:03;;;;;;;13.93;7.65;;;;;;;21.39;73.08;98383.66;1662516;85;25679;-59
2022/08/26 06:21:34;;;;;;;15.15;8.13;;;;;;;21.51;73.90;98380.50;1659921;85;27401;-57
2022/08/26 06:26:55;;;;;;;18.32;8.30;;;;;;;21.85;72.79;98384.97;1663733;85;25706;-57
2022/08/26 06:29:24;;;;;;;16.95;8.25;;;;;;;21.85;72.21;98379.39;1661152;85;26072;-58
2022/08/26 06:31:53;;;;;;;15.08;8.20;;;;;;;22.01;71.79;98382.36;1663979;85;25683;-57
2022/08/26 06:34:21;;;;;;;16.42;8.23;;;;;;;22.14;71.97;98382.77;1662727;85;27540;-57
2022/08/26 06:36:48;;;;;;;12.33;7.30;;;;;;;22.28;70.39;98386.93;1659760;85;25627;-58
2022/08/26 06:39:17;;;;;;;14.25;7.37;;;;;;;22.41;70.58;98390.12;1663016;85;25743;-57
2022/08/26 06:41:45;;;;;;;14.45;7.92;;;;;;;22.52;69.97;98390.10;1663209;85;26405;-58
2022/08/26 06:44:14;;;;;;;10.55;6.62;;;;;;;22.70;69.71;98390.67;1668476;85;25743;-57
2022/08/26 06:46:42;;;;;;;12.07;7.83;;;;;;;22.80;68.58;98394.03;1662851;85;27393;-58
2022/08/26 06:49:10;;;;;;;13.25;6.80;;;;;;;22.87;68.43;98391.83;1660019;85;26096;-58
2022/08/26 06:51:38;;;;;;;13.93;7.47;;;;;;;23.02;67.73;98391.77;1662783;85;26200;-58
2022/08/26 06:54:07;;;;;;;15.13;6.78;;;;;;;23.16;68.38;98390.91;1663914;85;26591;-58
2022/08/26 06:56:41;;;;;;;12.63;7.10;;;;;;;23.29;67.83;98390.64;1664872;85;25671;-58
2022/08/26 06:59:10;;;;;;;14.75;6.42;;;;;;;23.53;67.41;98393.76;1664737;85;28253;-58
2022/08/26 07:01:44;;;;;;;13.25;6.97;;;;;;;23.73;65.17;98396.03;1683399;85;25649;-58
2022/08/26 07:04:16;;;;;;;13.03;6.78;;;;;;;23.73;65.37;98399.41;1682956;85;25520;-57
2022/08/26 07:06:47;;;;;;;12.80;6.30;;;;;;;23.87;64.07;98405.52;1682977;85;26785;-57
2022/08/26 07:09:12;;;;;;;10.72;6.72;;;;;;;24.06;64.37;98406.96;1682672;85;25648;-58
2022/08/26 07:11:40;;;;;;;13.00;6.40;;;;;;;24.27;63.92;98396.22;1682899;85;27480;-57
2022/08/26 07:14:07;;;;;;;14.43;6.17;;;;;;;24.28;62.52;98397.83;1682958;85;25631;-57
2022/08/26 07:16:34;;;;;;;14.78;7.03;;;;;;;24.29;61.89;98400.80;1682859;85;25755;-58
2022/08/26 07:19:01;;;;;;;14.83;6.67;;;;;;;24.38;62.24;98398.14;1683375;85;25844;-59
2022/08/26 07:21:28;;;;;;;11.05;6.40;;;;;;;24.48;60.44;98402.84;1683187;85;25640;-57
2022/08/26 07:23:55;;;;;;;13.65;6.67;;;;;;;24.50;61.47;98406.63;1683187;85;28294;-57
2022/08/26 07:26:26;;;;;;;10.70;6.42;;;;;;;24.68;60.95;98404.44;1683079;85;25823;-57
2022/08/26 07:28:55;;;;;;;14.18;6.67;;;;;;;24.73;60.84;98400.98;1683172;85;25575;-61
2022/08/26 07:31:25;;;;;;;14.35;6.20;;;;;;;24.92;61.54;98400.40;1683227;85;25697;-58
2022/08/26 07:33:53;;;;;;;15.48;6.25;;;;;;;25.27;59.88;98404.57;1683441;85;25498;-58
2022/08/26 07:36:21;;;;;;;11.95;6.05;;;;;;;25.50;60.16;98394.65;1683274;85;27457;-57
2022/08/26 07:38:48;;;;;;;18.70;6.50;;;;;;;25.48;58.01;98395.70;1683184;85;25431;-58
2022/08/26 07:41:18;;;;;;;14.47;6.10;;;;;;;25.39;58.74;98391.98;1682912;85;25506;-58
2022/08/26 07:43:47;;;;;;;13.88;6.72;;;;;;;25.47;59.84;98389.11;1683606;85;26722;-58
2022/08/26 07:46:17;;;;;;;14.50;5.75;;;;;;;25.87;59.38;98384.31;1682833;85;25422;-58
2022/08/26 07:48:42;;;;;;;11.05;5.20;;;;;;;26.25;58.35;98385.49;1682483;85;26081;-58
2022/08/26 07:51:08;;;;;;;10.93;5.28;;;;;;;26.45;56.92;98381.19;1682689;85;25659;-58
2022/08/26 07:53:35;;;;;;;14.25;4.87;;;;;;;26.46;56.06;98379.95;1683015;85;25660;-58
2022/08/26 07:56:02;;;;;;;9.48;4.95;;;;;;;26.46;54.23;98377.95;1683158;85;25614;-58
2022/08/26 07:58:28;;;;;;;7.58;4.60;;;;;;;26.35;54.61;98385.77;1683009;85;25721;-58
2022/08/26 08:00:55;;;;;;;11.38;5.10;;;;;;;26.39;54.28;98383.08;1688816;85;27383;-58
2022/08/26 08:03:21;;;;;;;11.20;5.20;;;;;;;26.51;53.41;98379.47;1688537;85;25962;-58
2022/08/26 08:05:48;;;;;;;7.25;4.55;;;;;;;26.49;53.40;98381.91;1688330;85;25509;-58
2022/08/26 08:08:15;;;;;;;8.50;4.40;;;;;;;26.64;53.45;98382.42;1688664;84;26321;-58
2022/08/26 08:10:43;;;;;;;9.33;4.20;;;;;;;26.69;52.10;98379.91;1688462;85;25596;-59
2022/08/26 08:13:10;;;;;;;7.97;4.55;;;;;;;26.87;50.17;98381.58;1688372;85;27490;-58
2022/08/26 08:15:37;;;;;;;14.25;4.42;;;;;;;26.89;50.78;98378.34;1688267;85;25706;-58
2022/08/26 08:18:05;;;;;;;13.83;4.62;;;;;;;27.15;50.02;98382.86;1688438;85;25604;-58
2022/08/26 08:20:33;;;;;;;10.82;4.78;;;;;;;27.49;50.71;98376.07;1688302;85;25679;-58
2022/08/26 08:23:03;;;;;;;7.78;4.22;;;;;;;27.79;49.42;98381.26;1688648;85;25458;-58
2022/08/26 08:25:31;;;;;;;11.05;4.22;;;;;;;27.78;47.07;98378.88;1688820;85;27444;-58
2022/08/26 08:27:57;;;;;;;7.03;4.17;;;;;;;27.80;47.61;98372.18;1688431;85;25634;-59
2022/08/26 08:30:24;;;;;;;9.63;3.95;;;;;;;28.12;46.28;98371.23;1688322;85;25734;-61
2022/08/26 08:32:51;;;;;;;9.20;3.90;;;;;;;28.21;45.01;98372.00;1688404;85;25736;-64
2022/08/26 08:35:21;;;;;;;7.42;3.60;;;;;;;28.35;44.44;98370.23;1688661;85;25462;-64
2022/08/26 08:37:52;;;;;;;10.93;4.35;;;;;;;28.32;43.66;98372.53;1688726;85;27622;-58
2022/08/26 08:40:17;;;;;;;8.33;4.33;;;;;;;28.40;44.31;98365.48;1687883;85;32221;-58
2022/08/26 08:43:03;;;;;;;7.55;4.20;;;;;;;28.54;44.61;98363.51;1688421;85;25635;-59
2022/08/26 08:45:53;;;;;;;7.03;4.25;;;;;;;28.88;44.91;98362.78;1688809;85;25903;-58
2022/08/26 08:48:33;;;;;;;7.08;4.33;;;;;;;29.12;43.72;98366.74;1688967;85;25618;-58
2022/08/26 08:51:17;;;;;;;10.18;3.70;;;;;;;29.40;43.89;98364.30;1688374;85;27397;-64
2022/08/26 08:53:47;;;;;;;10.55;3.55;;;;;;;29.67;43.67;98353.20;1688503;85;25795;-63
2022/08/26 08:56:33;;;;;;;10.03;3.98;;;;;;;29.79;41.81;98355.22;1688428;85;25668;-62
2022/08/26 08:59:21;;;;;;;7.25;3.42;;;;;;;29.84;41.49;98357.33;1688190;84;25919;-63
2022/08/26 09:02:16;;;;;;;8.00;3.40;;;;;;;29.80;39.79;98351.79;1689130;85;25500;-61
2022/08/26 09:05:03;;;;;;;7.37;3.70;;;;;;;29.73;39.74;98355.63;1688590;85;27426;-64
2022/08/26 09:07:40;;;;;;;7.22;3.40;;;;;;;29.81;38.60;98354.77;1687224;85;25477;-64
2022/08/26 09:10:42;;;;;;;6.00;3.55;;;;;;;30.14;39.14;98352.30;1687467;85;25488;-65
2022/08/26 09:13:16;;;;;;;6.55;3.47;;;;;;;30.28;39.09;98353.22;1688846;85;25836;-61
2022/08/26 09:15:56;;;;;;;5.90;3.70;;;;;;;30.29;37.97;98349.78;1688803;85;25451;-61
2022/08/26 09:18:54;;;;;;;5.22;3.40;;;;;;;30.63;37.88;98343.95;1688209;85;27454;-66
2022/08/26 09:21:23;;;;;;;6.33;3.62;;;;;;;30.85;36.92;98346.64;1688345;85;25484;-61
2022/08/26 09:23:51;;;;;;;5.08;3.80;;;;;;;30.95;37.55;98338.98;1688900;85;25513;-60
2022/08/26 09:26:44;;;;;;;6.95;3.60;;;;;;;30.88;37.68;98342.89;1688666;85;25690;-60
2022/08/26 09:29:30;;;;;;;6.80;3.80;;;;;;;30.68;37.47;98336.27;1688465;85;25692;-61
2022/08/26 09:32:24;;;;;;;6.50;3.62;;;;;;;30.71;38.30;98337.38;1688686;85;27569;-61
2022/08/26 09:35:02;;;;;;;6.85;3.50;;;;;;;30.68;38.32;98336.88;1688552;85;25489;-60
2022/08/26 09:37:46;;;;;;;7.78;3.52;;;;;;;30.88;36.97;98339.41;1688543;85;25596;-61
2022/08/26 09:40:39;;;;;;;8.43;3.62;;;;;;;31.27;38.27;98336.34;1688312;84;26641;-61
2022/08/26 09:43:21;;;;;;;8.73;3.50;;;;;;;31.41;35.50;98333.59;1688593;85;25422;-59
2022/08/26 09:45:55;;;;;;;4.92;3.55;;;;;;;31.34;36.19;98333.83;1688431;85;27616;-58
2022/08/26 09:48:36;;;;;;;9.23;3.62;;;;;;;31.51;35.04;98339.27;1686347;85;25619;-58
2022/08/26 09:51:08;;;;;;;4.83;3.02;;;;;;;31.53;34.50;98338.98;1688078;85;25759;-60
2022/08/26 09:53:39;;;;;;;6.72;3.40;;;;;;;32.11;35.33;98335.04;1685442;85;26566;-59
2022/08/26 09:56:28;;;;;;;5.35;3.25;;;;;;;31.99;34.93;98329.06;1685213;85;25490;-59
2022/08/26 09:58:56;;;;;;;7.37;3.37;;;;;;;31.87;33.62;98330.74;1695128;84;27468;-59
2022/08/26 10:01:34;;;;;;;5.47;3.30;;;;;;;31.90;35.12;98324.76;1680250;84;25907;-59
2022/08/26 10:04:08;;;;;;;8.25;3.72;;;;;;;32.09;35.19;98324.17;1680258;85;25510;-59
2022/08/26 10:06:40;;;;;;;5.40;3.20;;;;;;;32.06;34.72;98330.78;1680258;85;25790;-60
2022/08/26 10:09:11;;;;;;;3.77;3.30;;;;;;;32.14;34.86;98319.31;1680306;85;25896;-58
2022/08/26 10:11:51;;;;;;;4.97;3.37;;;;;;;32.37;35.67;98314.27;1680387;85;28304;-58
2022/08/26 10:14:34;;;;;;;9.15;3.65;;;;;;;32.54;34.08;98317.61;1680258;85;25753;-64
2022/08/26 10:17:06;;;;;;;9.13;3.60;;;;;;;32.50;33.88;98313.36;1640902;87;25562;-63
2022/08/26 10:19:43;;;;;;;8.48;3.47;;;;;;;32.49;34.23;98304.05;1640420;87;25798;-64
2022/08/26 10:22:38;;;;;;;5.97;2.95;;;;;;;32.41;34.08;98307.80;1640629;87;25800;-63
2022/08/26 10:25:10;;;;;;;8.93;3.55;;;;;;;32.41;34.72;98298.53;1640442;87;28467;-62
2022/08/26 10:27:45;;;;;;;7.10;3.40;;;;;;;32.68;34.34;98296.94;1640328;87;25734;-65
2022/08/26 10:30:15;;;;;;;6.45;3.10;;;;;;;32.81;34.89;98293.91;1640632;87;25824;-64
2022/08/26 10:32:50;;;;;;;8.63;3.00;;;;;;;32.98;33.82;98285.05;1640574;87;25611;-64
2022/08/26 10:35:20;;;;;;;8.43;3.30;;;;;;;32.91;33.49;98286.17;1624151;87;25543;-65
2022/08/26 10:37:54;;;;;;;4.30;3.17;;;;;;;32.62;33.19;98291.13;1635345;87;27465;-65
2022/08/26 10:40:38;;;;;;;6.87;3.15;;;;;;;32.84;32.96;98290.77;1638646;87;25557;-68
2022/08/26 10:43:12;;;;;;;11.75;3.10;;;;;;;32.80;33.21;98295.17;1637776;87;25698;-64
2022/08/26 10:45:56;;;;;;;6.45;2.98;;;;;;;32.94;33.79;98285.22;1638711;87;26612;-65
2022/08/26 10:48:49;;;;;;;8.40;3.42;;;;;;;33.17;32.04;98280.11;1636946;87;25850;-59
2022/08/26 10:51:23;;;;;;;6.33;3.02;;;;;;;33.35;32.60;98286.34;1637348;87;27442;-60
2022/08/26 10:54:21;;;;;;;7.33;2.98;;;;;;;33.23;31.99;98288.13;1662837;85;25719;-59
2022/08/26 10:57:26;;;;;;;7.90;3.12;;;;;;;33.55;31.87;98285.77;1683146;85;25683;-59
2022/08/26 11:03:14;;;;;;;6.65;3.37;;;;;;;34.05;31.49;98276.64;1664122;85;25731;-60
2022/08/26 11:05:41;;;;;;;6.10;3.50;;;;;;;34.11;31.82;98282.42;1659777;85;27465;-59
2022/08/26 11:08:28;;;;;;;6.95;2.95;;;;;;;33.99;31.42;98279.34;1661798;85;25733;-59
2022/08/26 11:10:58;;;;;;;8.60;2.70;;;;;;;34.59;31.10;98273.66;1663452;85;25783;-58
2022/08/26 11:14:01;;;;;;;5.90;3.00;;;;;;;34.61;30.05;98271.89;1663896;85;25765;-59
2022/08/26 11:16:43;;;;;;;6.33;2.85;;;;;;;34.41;29.46;98273.97;1667805;85;25820;-60
2022/08/26 11:19:30;;;;;;;7.25;2.90;;;;;;;34.20;29.36;98266.75;1663899;85;27366;-59
2022/08/26 11:22:10;;;;;;;5.37;2.90;;;;;;;34.21;30.06;98273.20;1668476;85;26328;-60
2022/08/26 11:24:53;;;;;;;5.92;3.20;;;;;;;34.01;29.61;98265.44;1663866;85;25691;-59
2022/08/26 11:27:37;;;;;;;6.10;2.80;;;;;;;34.42;30.27;98259.89;1663976;85;25745;-59
2022/08/26 11:30:21;;;;;;;6.70;2.70;;;;;;;34.64;28.04;98255.27;1664450;85;25759;-58
2022/08/26 11:32:56;;;;;;;4.92;2.72;;;;;;;34.48;27.98;98256.52;1664501;85;27518;-60
2022/08/26 11:35:27;;;;;;;5.37;2.20;;;;;;;34.68;27.76;98251.46;1663586;85;25770;-59
2022/08/26 11:37:57;;;;;;;6.92;2.62;;;;;;;34.59;27.78;98245.22;1663322;85;25716;-59
2022/08/26 11:40:34;;;;;;;4.92;2.65;;;;;;;34.72;26.64;98240.66;1665598;85;25815;-59
2022/08/26 11:43:07;;;;;;;6.53;2.37;;;;;;;34.64;26.87;98245.93;1664160;85;25846;-59
2022/08/26 11:45:39;;;;;;;4.15;2.35;;;;;;;34.58;26.39;98240.78;1662719;85;27494;-60
2022/08/26 11:48:29;;;;;;;5.50;2.33;;;;;;;35.09;26.73;98233.11;1650482;85;25726;-59
2022/08/26 11:51:12;;;;;;;6.78;2.77;;;;;;;35.03;26.21;98242.20;1669246;85;25712;-59
2022/08/26 11:53:41;;;;;;;5.17;2.60;;;;;;;34.77;27.10;98229.36;1666591;85;25665;-60
2022/08/26 11:56:33;;;;;;;6.65;2.90;;;;;;;34.83;27.05;98235.17;1665444;85;25770;-61